Time;durP1;ratioP1;P1;durP2;ratioP2;P2;SDS_P1;SDS_P2;PMS_P1;PMS_P2;Temp;Humidity;BMP_temperature;BMP_pressure;BME280_temperature;BME280_humidity;BME280_pressure;Samples;Min_cycle;Max_cycle;Signal;HPM_P1;HPM_P2
2022/03/08 00:02:11;;;;;;;;;;;;;;;;;;;;;
2022/03/08 00:05:05;;;;;;;23.33;10.68;;;;;;;-2.22;64.95;92677.94;4995827;28;20545;-90
2022/03/08 00:07:56;;;;;;;19.17;9.98;;;;;;;-1.96;64.77;92720.69;4975569;28;20050;-91
2022/03/08 00:10:52;;;;;;;;;;;;;;;;;;;;;
2022/03/08 00:13:54;;;;;;;22.38;10.35;;;;;;;-2.40;65.09;92663.22;4995578;28;20042;-90
2022/03/08 00:16:56;;;;;;;23.80;10.75;;;;;;;-2.35;64.91;92686.47;5002172;28;20044;-91
2022/03/08 00:20:06;;;;;;;;;;;;;;;;;;;;;
2022/03/08 00:22:44;;;;;;;;;;;;;;;;;;;;;
2022/03/08 00:25:42;;;;;;;;;;;;;;;;;;;;;
2022/03/08 00:28:36;;;;;;;23.33;11.10;;;;;;;-2.38;65.94;92706.63;5013669;28;20042;-91
2022/03/08 00:31:11;;;;;;;22.63;11.02;;;;;;;-2.48;65.51;92683.94;4983925;28;20073;-90
2022/03/08 00:34:27;;;;;;;;;;;;;;;;;;;;;
2022/03/08 00:37:15;;;;;;;24.83;11.55;;;;;;;-2.05;65.89;92751.88;4987765;28;20038;-90
2022/03/08 00:40:24;;;;;;;;;;;;;;;;;;;;;
2022/03/08 00:47:07;;;;;;;;;;;;;;;;;;;;;
2022/03/08 00:50:31;;;;;;;;;;;;;;;;;;;;;
2022/03/08 00:53:55;;;;;;;;;;;;;;;;;;;;;
2022/03/08 00:59:56;;;;;;;;;;;;;;;;;;;;;
2022/03/08 01:02:50;;;;;;;27.15;10.25;;;;;;;-2.05;64.86;92733.91;4982643;28;20397;-91
2022/03/08 01:06:39;;;;;;;24.48;12.25;;;;;;;-1.78;63.78;92712.31;5018749;28;20045;-91
2022/03/08 01:09:01;;;;;;;22.55;11.07;;;;;;;-1.65;63.82;92726.84;5012291;28;20499;-91
2022/03/08 01:11:56;;;;;;;20.88;10.40;;;;;;;-1.79;64.07;92720.97;4999731;28;20041;-91
2022/03/08 01:18:12;;;;;;;;;;;;;;;;;;;;;
2022/03/08 01:21:33;;;;;;;21.85;11.10;;;;;;;-1.16;64.02;92784.44;5018753;28;20041;-90
2022/03/08 01:24:38;;;;;;;;;;;;;;;;;;;;;
2022/03/08 01:27:43;;;;;;;;;;;;;;;-1.22;64.41;92790.41;5018140;28;20073;-91
2022/03/08 01:30:46;;;;;;;18.88;10.50;;;;;;;-1.50;64.33;92775.34;5001139;28;19908;-92
2022/03/08 01:34:07;;;;;;;24.27;11.85;;;;;;;-1.90;64.96;92753.19;5020035;28;20041;-91
2022/03/08 01:36:41;;;;;;;23.80;12.13;;;;;;;-1.73;66.27;92786.91;5004645;28;20041;-90
2022/03/08 01:39:43;;;;;;;25.05;12.02;;;;;;;-1.97;66.00;92760.13;4986950;28;20513;-93
2022/03/08 01:43:07;;;;;;;;;;;;;;;;;;;;;
2022/03/08 01:45:56;;;;;;;;;;;;;;;;;;;;;
2022/03/08 01:55:51;;;;;;;25.80;11.77;;;;;;;-1.85;67.14;92792.88;4986139;28;20145;-91
2022/03/08 02:01:54;;;;;;;24.58;11.73;;;;;;;-2.06;67.30;92763.13;4990788;28;20672;-91
2022/03/08 02:05:05;;;;;;;26.08;11.98;;;;;;;-2.04;67.85;92759.38;5015356;28;20491;-92
2022/03/08 02:08:01;;;;;;;;;;;;;;;;;;;;;
2022/03/08 02:11:20;;;;;;;;;;;;;;;;;;;;;
2022/03/08 02:14:11;;;;;;;;;;;;;;;;;;;;;
2022/03/08 02:17:02;;;;;;;23.42;12.10;;;;;;;-1.73;67.69;92804.88;5020414;28;20045;-91
2022/03/08 02:19:57;;;;;;;20.85;10.35;;;;;;;-2.00;67.21;92760.56;5016857;28;20037;-91
2022/03/08 02:23:00;;;;;;;;;;;;;;;;;;;;;
2022/03/08 02:32:43;;;;;;;22.00;11.55;;;;;;;-1.60;66.59;92816.88;5015958;28;20042;-91
2022/03/08 02:36:07;;;;;;;25.87;11.17;;;;;;;-1.85;66.95;92774.91;4997972;28;20045;-91
2022/03/08 02:38:44;;;;;;;19.60;11.10;;;;;;;-1.70;66.61;92791.63;5003660;28;20060;-91
2022/03/08 02:41:43;;;;;;;22.40;11.05;;;;;;;-1.70;65.77;92783.94;4990071;28;20037;-91
2022/03/08 02:44:24;;;;;;;19.83;9.85;;;;;;;-1.65;66.02;92783.31;5015885;28;20049;-91
2022/03/08 02:47:19;;;;;;;20.50;11.10;;;;;;;-1.40;66.06;92805.72;5024748;28;20132;-92
2022/03/08 02:50:19;;;;;;;;;;;;;;;;;;;;;
2022/03/08 02:53:19;;;;;;;16.90;9.32;;;;;;;-1.45;65.13;92787.59;5020000;28;20045;-91
2022/03/08 02:56:25;;;;;;;;;;;;;;;;;;;;;
2022/03/08 03:02:58;;;;;;;22.95;11.07;;;;;;;-1.00;64.27;92831.22;5006618;28;20050;-91
2022/03/08 03:05:52;;;;;;;;;;;;;;;;;;;;;
2022/03/08 03:08:40;;;;;;;;;;;;;;;;;;;;;
2022/03/08 03:11:55;;;;;;;;;;;;;;;;;;;;;
2022/03/08 03:14:37;;;;;;;17.65;8.98;;;;;;;-1.03;64.55;92795.66;5044093;28;19924;-91
2022/03/08 03:17:29;;;;;;;;;;;;;;;;;;;;;
2022/03/08 03:20:24;;;;;;;19.85;9.98;;;;;;;-1.03;63.66;92793.09;5004909;28;20038;-92
2022/03/08 03:30:04;;;;;;;21.60;10.52;;;;;;;-1.10;63.90;92765.66;5002926;28;20049;-91
2022/03/08 03:33:16;;;;;;;;;;;;;;;;;;;;;
2022/03/08 03:36:31;;;;;;;22.35;11.40;;;;;;;-0.85;63.71;92803.44;5018009;28;20528;-90
2022/03/08 03:39:32;;;;;;;28.00;11.18;;;;;;;-1.05;63.87;92773.50;5000679;28;20037;-89
2022/03/08 03:42:30;;;;;;;22.60;11.05;;;;;;;-1.01;64.04;92771.31;5018702;28;20053;-90
2022/03/08 03:48:28;;;;;;;25.25;11.65;;;;;;;-0.92;63.32;92785.50;4998974;28;20072;-90
2022/03/08 03:51:16;;;;;;;25.15;11.75;;;;;;;-0.79;63.61;92797.44;4985967;28;20487;-90
2022/03/08 03:54:11;;;;;;;;;;;;;;;;;;;;;
2022/03/08 03:56:47;;;;;;;27.00;11.23;;;;;;;-0.95;63.84;92777.41;5015835;28;20033;-90
2022/03/08 03:59:33;;;;;;;27.15;12.07;;;;;;;-0.76;63.81;92793.69;4999511;28;20125;-91
2022/03/08 04:05:37;;;;;;;;;;;;;;;;;;;;;
2022/03/08 04:08:15;;;;;;;30.98;12.98;;;;;;;-1.16;64.56;92774.19;5017563;28;20041;-91
2022/03/08 04:10:49;;;;;;;25.33;11.75;;;;;;;-0.82;64.90;92818.44;4983440;28;20546;-91
2022/03/08 04:14:02;;;;;;;23.98;12.38;;;;;;;-1.11;65.07;92789.75;5031635;28;20049;-91
2022/03/08 04:17:02;;;;;;;21.63;11.95;;;;;;;-1.15;65.39;92788.63;5016478;28;20425;-91
2022/03/08 04:19:56;;;;;;;26.50;11.55;;;;;;;-1.20;65.48;92788.44;5020927;28;20573;-91
2022/03/08 04:22:59;;;;;;;23.50;12.00;;;;;;;-0.94;66.10;92828.59;5003190;28;20045;-91
2022/03/08 04:25:35;;;;;;;23.48;12.27;;;;;;;-1.21;65.48;92784.28;4993416;28;20046;-91
2022/03/08 04:28:09;;;;;;;24.25;12.48;;;;;;;-0.89;65.67;92828.75;5001404;28;20071;-90
2022/03/08 04:31:01;;;;;;;23.88;11.50;;;;;;;-1.01;66.15;92812.44;5001998;28;20132;-91
2022/03/08 04:33:48;;;;;;;;;;;;;;;;;;;;;
2022/03/08 04:37:11;;;;;;;27.08;13.27;;;;;;;-1.04;66.18;92820.53;5023326;28;20045;-91
2022/03/08 04:40:05;;;;;;;26.67;13.83;;;;;;;-1.07;66.21;92815.81;5019259;28;20490;-91
2022/03/08 04:49:40;;;;;;;26.52;12.13;;;;;;;-1.07;65.65;92805.56;5023427;28;20064;-90
2022/03/08 04:56:05;;;;;;;23.25;11.93;;;;;;;-1.15;66.09;92806.59;4999916;28;20509;-90
2022/03/08 04:58:43;;;;;;;26.77;12.75;;;;;;;-1.12;66.00;92813.09;4987163;28;20054;-90
2022/03/08 05:01:49;;;;;;;;;;;;;;;;;;;;;
2022/03/08 05:04:31;;;;;;;19.55;11.07;;;;;;;-1.02;65.31;92812.63;5016738;28;20049;-91
2022/03/08 05:07:41;;;;;;;22.65;10.75;;;;;;;-0.91;66.14;92840.25;4988894;28;20052;-91
2022/03/08 05:10:41;;;;;;;25.02;12.88;;;;;;;-0.97;65.95;92838.50;5014666;28;20054;-91
2022/03/08 05:13:39;;;;;;;27.60;11.85;;;;;;;-1.02;65.94;92822.91;5001608;28;20046;-91
2022/03/08 05:17:02;;;;;;;19.45;11.48;;;;;;;-1.04;65.27;92823.13;4966856;28;20034;-91
2022/03/08 05:20:20;;;;;;;;;;;;;;;;;;;;;
2022/03/08 05:23:19;;;;;;;21.73;11.00;;;;;;;-1.04;65.80;92820.53;5025691;28;20100;-91
2022/03/08 05:25:57;;;;;;;21.15;11.65;;;;;;;-1.09;65.47;92817.81;5018037;28;20095;-92
2022/03/08 05:28:49;;;;;;;;;;;;;;;;;;;;;
2022/03/08 05:31:58;;;;;;;18.08;10.40;;;;;;;-1.01;66.25;92827.06;5004952;28;20046;-92
2022/03/08 05:34:42;;;;;;;20.08;10.23;;;;;;;-1.13;66.41;92817.44;5014075;28;20029;-90
2022/03/08 05:37:48;;;;;;;19.63;10.65;;;;;;;-0.74;66.17;92877.31;5020730;28;20045;-91
2022/03/08 05:41:10;;;;;;;;;;;;;;;;;;;;;
2022/03/08 05:44:01;;;;;;;22.00;11.25;;;;;;;-1.10;66.04;92813.69;5006681;28;20049;-91
2022/03/08 05:46:46;;;;;;;18.65;10.38;;;;;;;-1.09;65.64;92820.38;5017083;28;20040;-88
2022/03/08 05:49:59;;;;;;;;;;;;;;;;;;;;;
2022/03/08 05:52:38;;;;;;;20.50;10.75;;;;;;;-0.82;66.40;92862.13;5022815;28;20042;-87
2022/03/08 05:55:16;;;;;;;19.73;10.27;;;;;;;-0.82;65.72;92844.16;5011717;28;20033;-87
2022/03/08 05:58:09;;;;;;;24.55;11.85;;;;;;;-1.10;66.58;92823.97;5033071;28;20041;-87
2022/03/08 06:01:04;;;;;;;;;;;;;;;;;;;;;
2022/03/08 06:03:44;;;;;;;21.67;11.80;;;;;;;-1.04;66.31;92841.09;5010173;28;20160;-88
2022/03/08 06:06:36;;;;;;;;;;;;;;;;;;;;;
2022/03/08 06:09:11;;;;;;;23.15;11.57;;;;;;;-0.83;66.48;92868.28;5020100;28;20040;-87
2022/03/08 06:12:13;;;;;;;;;;;;;;;;;;;;;
2022/03/08 06:14:42;;;;;;;22.65;12.02;;;;;;;-0.71;66.67;92891.53;5013740;28;20042;-86
2022/03/08 06:17:08;;;;;;;19.67;10.95;;;;;;;-0.68;66.78;92896.25;5024208;28;20042;-86
2022/03/08 06:19:34;;;;;;;20.23;11.52;;;;;;;-0.90;66.93;92880.38;5014344;28;20042;-85
2022/03/08 06:22:03;;;;;;;22.05;11.68;;;;;;;-1.01;66.65;92861.28;4996158;28;20038;-85
2022/03/08 06:24:29;;;;;;;22.08;11.52;;;;;;;-0.86;66.97;92878.97;4987692;28;20050;-85
2022/03/08 06:26:57;;;;;;;26.13;10.80;;;;;;;-1.11;66.98;92842.94;4999582;28;20494;-86
2022/03/08 06:29:22;;;;;;;23.65;11.75;;;;;;;-1.08;67.33;92840.75;4997901;28;20106;-85
2022/03/08 06:31:50;;;;;;;19.67;10.40;;;;;;;-1.04;67.29;92846.25;5014082;28;20042;-86
2022/03/08 06:34:16;;;;;;;21.90;11.00;;;;;;;-0.86;67.20;92884.91;5014559;28;20029;-86
2022/03/08 06:36:42;;;;;;;22.40;11.35;;;;;;;-0.67;67.24;92898.63;4997934;28;20045;-85
2022/03/08 06:39:08;;;;;;;21.70;10.93;;;;;;;-0.70;67.39;92893.91;5015216;28;20072;-84
2022/03/08 06:41:33;;;;;;;21.45;11.18;;;;;;;-0.71;67.32;92896.69;5015992;28;20065;-85
2022/03/08 06:44:00;;;;;;;21.90;11.18;;;;;;;-0.76;67.81;92892.16;4999104;28;20490;-86
2022/03/08 06:46:28;;;;;;;19.98;11.52;;;;;;;-0.61;67.56;92904.72;5016154;28;20077;-85
2022/03/08 06:48:54;;;;;;;20.67;10.32;;;;;;;-0.73;67.51;92875.53;5033247;28;20514;-85
2022/03/08 06:51:20;;;;;;;21.30;11.45;;;;;;;-0.62;67.72;92903.16;4988997;28;20193;-84
2022/03/08 06:53:45;;;;;;;21.17;10.93;;;;;;;-0.64;67.71;92894.84;5013653;28;20480;-84
2022/03/08 06:56:11;;;;;;;21.95;11.35;;;;;;;-0.72;68.23;92889.94;4995377;28;20033;-85
2022/03/08 06:58:37;;;;;;;19.38;10.73;;;;;;;-0.77;67.91;92890.56;4980494;28;20046;-85
2022/03/08 07:01:02;;;;;;;22.25;11.93;;;;;;;-0.67;67.97;92903.00;4998027;28;20048;-85
2022/03/08 07:03:28;;;;;;;20.10;11.00;;;;;;;-0.60;68.33;92905.53;5032896;28;20060;-85
2022/03/08 07:05:54;;;;;;;17.95;10.40;;;;;;;-0.60;68.33;92910.69;4998939;28;20475;-85
2022/03/08 07:08:19;;;;;;;19.20;9.75;;;;;;;-0.41;68.83;92920.03;4999484;28;20049;-85
2022/03/08 07:10:45;;;;;;;22.67;11.13;;;;;;;-0.66;69.52;92889.91;4978791;28;20486;-85
2022/03/08 07:13:10;;;;;;;22.85;12.27;;;;;;;-0.53;69.63;92919.13;4998667;28;20045;-86
2022/03/08 07:15:37;;;;;;;26.50;12.15;;;;;;;-0.59;69.20;92919.94;4981471;28;20096;-85
2022/03/08 07:18:02;;;;;;;20.45;11.27;;;;;;;-0.53;69.80;92924.28;4963307;28;20045;-85
2022/03/08 07:20:28;;;;;;;23.35;12.15;;;;;;;-0.69;69.46;92905.75;4978335;28;20407;-87
2022/03/08 07:22:53;;;;;;;23.35;12.00;;;;;;;-0.64;70.88;92908.50;4977850;28;20034;-87
2022/03/08 07:25:19;;;;;;;21.45;11.18;;;;;;;-0.65;70.77;92914.66;4994349;28;20095;-86
2022/03/08 07:27:46;;;;;;;23.52;12.23;;;;;;;-0.55;70.54;92921.91;4962612;28;20042;-87
2022/03/08 07:30:12;;;;;;;21.67;11.73;;;;;;;-0.60;70.60;92920.97;4994107;28;20042;-87
2022/03/08 07:32:37;;;;;;;23.25;11.27;;;;;;;-0.60;70.25;92920.97;4986941;28;20553;-86
2022/03/08 07:35:05;;;;;;;22.38;11.68;;;;;;;-0.67;70.73;92919.22;4998197;28;20041;-86
2022/03/08 07:37:35;;;;;;;24.38;12.40;;;;;;;-0.71;71.62;92918.03;4981927;28;20050;-85
2022/03/08 07:40:01;;;;;;;21.33;11.90;;;;;;;-0.70;72.17;92934.25;5015233;28;20041;-87
2022/03/08 07:42:27;;;;;;;22.90;11.63;;;;;;;-0.69;72.15;92936.63;5003073;28;20045;-86
2022/03/08 07:44:53;;;;;;;20.88;11.73;;;;;;;-0.78;73.06;92922.44;4970430;28;20403;-87
2022/03/08 07:47:19;;;;;;;25.83;11.15;;;;;;;-0.76;71.64;92909.38;5002907;28;20042;-87
2022/03/08 07:49:45;;;;;;;22.38;11.68;;;;;;;-0.69;71.90;92925.56;5018915;28;20038;-86
2022/03/08 07:52:11;;;;;;;23.63;11.07;;;;;;;-0.71;72.41;92930.91;5003934;28;20038;-86
2022/03/08 07:54:36;;;;;;;21.45;11.77;;;;;;;-0.86;71.61;92940.66;4994884;28;20057;-86
2022/03/08 07:57:02;;;;;;;24.88;10.45;;;;;;;-0.85;71.61;92934.53;5015223;28;20038;-86
2022/03/08 07:59:29;;;;;;;20.35;9.45;;;;;;;-1.08;72.20;92928.09;4982765;28;20038;-86
2022/03/08 08:01:55;;;;;;;20.45;10.75;;;;;;;-1.07;73.50;92944.31;4983404;28;20057;-88
2022/03/08 08:04:20;;;;;;;19.83;10.25;;;;;;;-0.98;72.57;92940.50;4982544;28;20104;-86
2022/03/08 08:06:46;;;;;;;24.58;11.40;;;;;;;-1.06;72.49;92946.69;5009230;28;20140;-86
2022/03/08 08:09:12;;;;;;;18.15;9.60;;;;;;;-1.03;73.60;92952.41;5002395;28;20475;-85
2022/03/08 08:11:38;;;;;;;20.20;10.50;;;;;;;-1.02;73.69;92951.41;5018552;28;20048;-86
2022/03/08 08:14:04;;;;;;;21.08;11.07;;;;;;;-0.99;73.92;92951.00;5002510;28;20045;-86
2022/03/08 08:16:29;;;;;;;20.30;10.82;;;;;;;-0.99;73.41;92946.66;5035037;28;20401;-86
2022/03/08 08:18:58;;;;;;;22.45;11.27;;;;;;;-0.93;73.44;92950.19;5002139;28;20407;-85
2022/03/08 08:21:24;;;;;;;23.13;11.23;;;;;;;-1.09;74.11;92934.22;5018463;28;20041;-86
2022/03/08 08:23:49;;;;;;;21.10;11.00;;;;;;;-1.08;73.82;92958.94;5002151;28;20112;-86
2022/03/08 08:26:15;;;;;;;20.13;10.07;;;;;;;-1.07;73.72;92944.31;5002044;28;20398;-86
2022/03/08 08:28:41;;;;;;;22.58;11.40;;;;;;;-1.16;73.60;92951.44;4985631;28;20056;-86
2022/03/08 08:31:06;;;;;;;26.38;11.27;;;;;;;-1.08;74.26;92958.94;5018234;28;20036;-87
2022/03/08 08:33:32;;;;;;;24.70;11.00;;;;;;;-1.06;75.64;92953.59;5018341;28;20048;-87
2022/03/08 08:35:58;;;;;;;23.00;10.63;;;;;;;-1.15;75.25;92950.47;5018061;28;20034;-89
2022/03/08 08:38:23;;;;;;;20.60;10.82;;;;;;;-1.12;74.86;92937.22;5017879;28;20487;-86
2022/03/08 08:40:49;;;;;;;21.95;12.02;;;;;;;-0.92;74.36;92959.47;5001356;28;20120;-86
2022/03/08 08:43:14;;;;;;;21.30;11.63;;;;;;;-1.14;74.17;92923.78;5001552;28;20124;-85
2022/03/08 08:45:40;;;;;;;21.10;11.57;;;;;;;-0.95;75.00;92947.03;5017568;28;20465;-86
2022/03/08 08:48:07;;;;;;;21.27;11.27;;;;;;;-0.80;74.26;92965.56;5015282;28;20044;-86
2022/03/08 08:50:33;;;;;;;25.38;11.90;;;;;;;-0.97;73.88;92952.34;4998863;28;20044;-85
2022/03/08 08:52:58;;;;;;;24.38;12.60;;;;;;;-0.88;74.88;92960.63;4997312;28;20390;-86
2022/03/08 08:55:25;;;;;;;22.25;11.05;;;;;;;-0.75;73.55;92963.16;4981487;28;20038;-86
2022/03/08 08:57:50;;;;;;;23.23;13.25;;;;;;;-0.67;73.91;92957.78;4992384;28;20043;-86
2022/03/08 09:00:16;;;;;;;26.40;14.68;;;;;;;-0.63;73.55;92951.22;5017606;28;20041;-85
2022/03/08 09:02:43;;;;;;;22.42;12.68;;;;;;;-0.47;73.31;92962.03;5001124;28;20461;-86
2022/03/08 09:05:13;;;;;;;18.90;11.38;;;;;;;-0.45;73.84;92962.59;5001401;28;20191;-85
2022/03/08 09:07:42;;;;;;;19.55;11.35;;;;;;;-0.46;73.53;92966.94;5001518;28;20045;-86
2022/03/08 09:10:08;;;;;;;19.15;11.23;;;;;;;-0.63;72.33;92961.53;5000968;28;20041;-86
2022/03/08 09:12:34;;;;;;;22.15;12.32;;;;;;;-0.56;73.14;92976.91;5001214;28;20536;-87
2022/03/08 09:15:02;;;;;;;22.27;11.60;;;;;;;-0.68;73.29;92963.91;5001003;28;20029;-86
2022/03/08 09:17:28;;;;;;;22.60;11.25;;;;;;;-0.65;74.69;92984.06;5001300;28;20037;-87
2022/03/08 09:19:53;;;;;;;24.08;12.38;;;;;;;-0.65;73.74;92966.06;5000697;28;20029;-88
2022/03/08 09:22:19;;;;;;;22.92;11.13;;;;;;;-0.80;73.20;92964.75;5000599;28;20037;-86
2022/03/08 09:24:44;;;;;;;21.45;11.80;;;;;;;-0.93;73.66;92978.44;5000974;28;20042;-86
2022/03/08 09:27:10;;;;;;;21.83;11.93;;;;;;;-1.12;74.63;92983.47;5000463;28;20040;-86
2022/03/08 09:29:35;;;;;;;23.35;12.55;;;;;;;-1.34;75.07;92967.50;5000415;28;20037;-86
2022/03/08 09:32:01;;;;;;;22.98;11.55;;;;;;;-1.10;75.84;92991.75;5000726;28;20036;-86
2022/03/08 09:34:27;;;;;;;26.23;12.05;;;;;;;-1.20;76.03;92990.59;5000133;28;20065;-86
2022/03/08 09:36:52;;;;;;;19.85;10.65;;;;;;;-1.25;76.60;92988.63;5000127;28;20060;-85
2022/03/08 09:39:18;;;;;;;26.02;12.85;;;;;;;-1.33;77.20;92976.81;5000600;28;20546;-85
2022/03/08 09:41:43;;;;;;;22.92;12.52;;;;;;;-1.19;76.12;92974.19;5000586;28;20117;-86
2022/03/08 09:44:13;;;;;;;22.42;12.27;;;;;;;-0.98;76.44;92988.56;5000129;28;20541;-86
2022/03/08 09:46:40;;;;;;;31.27;12.48;;;;;;;-0.90;75.28;92984.00;4984370;28;20395;-86
2022/03/08 09:49:06;;;;;;;25.75;12.48;;;;;;;-0.87;75.43;92970.72;4999914;28;20045;-86
2022/03/08 09:51:38;;;;;;;23.40;12.05;;;;;;;-0.95;75.38;92970.16;4983561;28;20479;-88
2022/03/08 09:54:05;;;;;;;22.92;13.18;;;;;;;-0.87;75.63;92982.78;5012650;28;20483;-89
2022/03/08 09:56:30;;;;;;;23.00;12.35;;;;;;;-0.80;75.41;92975.84;5000213;28;20430;-86
2022/03/08 09:59:01;;;;;;;21.88;9.95;;;;;;;-0.83;74.84;92991.69;5016460;28;20041;-85
2022/03/08 10:01:27;;;;;;;22.63;12.15;;;;;;;-0.76;75.61;92989.84;5016540;28;20087;-87
2022/03/08 10:03:53;;;;;;;20.25;11.57;;;;;;;-1.16;75.42;92995.13;4982368;28;20053;-86
2022/03/08 10:06:18;;;;;;;19.50;10.50;;;;;;;-1.15;76.18;92999.28;4964153;28;20124;-85
2022/03/08 10:08:45;;;;;;;25.50;11.93;;;;;;;-1.16;75.37;93002.06;5012845;28;20045;-86
2022/03/08 10:11:14;;;;;;;16.33;10.00;;;;;;;-1.28;75.91;92999.31;5015883;28;20045;-87
2022/03/08 10:13:53;;;;;;;15.43;9.38;;;;;;;-1.34;76.07;93011.16;5033843;28;20076;-86
2022/03/08 10:16:27;;;;;;;17.58;9.77;;;;;;;-1.11;75.61;93000.44;4993350;28;20045;-87
2022/03/08 10:18:58;;;;;;;17.80;9.63;;;;;;;-1.30;75.52;92993.59;4999482;28;20060;-86
2022/03/08 10:21:51;;;;;;;21.73;10.82;;;;;;;-1.23;74.88;92985.88;5016117;28;20442;-86
2022/03/08 10:24:29;;;;;;;20.83;10.18;;;;;;;-1.14;74.38;93010.34;4996107;28;20483;-86
2022/03/08 10:26:59;;;;;;;17.27;9.43;;;;;;;-1.06;73.56;93008.34;4994201;28;20050;-86
2022/03/08 10:29:32;;;;;;;15.82;9.00;;;;;;;-0.98;72.79;93011.69;5012992;28;20796;-87
2022/03/08 10:32:19;;;;;;;17.02;9.40;;;;;;;-1.16;72.48;93002.84;4995330;28;20430;-86
2022/03/08 10:34:50;;;;;;;15.30;9.00;;;;;;;-1.20;71.52;93019.63;4996015;28;20034;-85
2022/03/08 10:37:20;;;;;;;15.80;8.73;;;;;;;-1.32;71.85;92993.78;4996172;28;20040;-86
2022/03/08 10:39:56;;;;;;;18.10;9.50;;;;;;;-0.91;73.48;93025.31;5022745;28;20083;-86
2022/03/08 10:42:31;;;;;;;17.77;8.98;;;;;;;-0.94;72.09;93005.94;5033329;28;20046;-86
2022/03/08 10:45:05;;;;;;;12.68;6.72;;;;;;;-0.66;69.86;93026.19;5033451;28;20037;-85
2022/03/08 10:48:00;;;;;;;12.68;6.65;;;;;;;-0.72;71.18;93021.88;5015372;28;20111;-87
2022/03/08 10:50:29;;;;;;;18.50;9.55;;;;;;;-0.91;72.71;93020.16;4986020;28;20053;-86
2022/03/08 10:52:57;;;;;;;17.63;10.07;;;;;;;-0.77;72.11;93008.84;4997280;28;20040;-86
2022/03/08 10:55:26;;;;;;;15.75;7.70;;;;;;;-0.88;68.51;93001.75;5015399;28;20041;-86
2022/03/08 10:58:00;;;;;;;15.07;8.27;;;;;;;-1.03;69.20;92980.69;4998602;28;20570;-86
2022/03/08 11:00:30;;;;;;;17.15;9.25;;;;;;;-0.68;71.03;93024.81;5032940;28;20045;-86
2022/03/08 11:02:58;;;;;;;20.67;10.07;;;;;;;-0.71;71.22;93005.47;5015072;28;20038;-85
2022/03/08 11:05:46;;;;;;;16.08;9.18;;;;;;;-0.51;68.87;93022.59;4998623;28;20521;-86
2022/03/08 11:08:12;;;;;;;21.10;9.75;;;;;;;-0.44;70.80;93016.41;5014535;28;20049;-88
2022/03/08 11:10:40;;;;;;;18.25;9.52;;;;;;;-0.18;69.89;93026.75;5014942;28;20034;-86
2022/03/08 11:13:07;;;;;;;20.90;9.45;;;;;;;-0.25;68.87;92999.31;5014362;28;20032;-86
2022/03/08 11:15:35;;;;;;;15.15;8.40;;;;;;;-0.07;67.89;93015.81;5003633;28;20402;-86
2022/03/08 11:18:04;;;;;;;15.43;8.30;;;;;;;-0.36;67.27;93007.69;4998731;28;20068;-85
2022/03/08 11:20:29;;;;;;;19.17;9.57;;;;;;;-0.18;67.22;93011.31;5016314;28;20112;-86
2022/03/08 11:22:57;;;;;;;16.63;9.20;;;;;;;-0.14;68.38;92995.25;5015384;28;20064;-86
2022/03/08 11:25:27;;;;;;;19.27;11.18;;;;;;;-0.32;71.06;93003.69;4995119;28;20038;-84
2022/03/08 11:27:53;;;;;;;18.48;9.45;;;;;;;-0.39;69.81;92987.50;5029245;28;20034;-85
2022/03/08 11:30:25;;;;;;;18.13;10.32;;;;;;;-0.22;71.08;93004.03;5013932;28;20709;-84
2022/03/08 11:33:28;;;;;;;22.25;11.30;;;;;;;0.15;70.45;93011.91;5014582;28;20095;-84
2022/03/08 11:35:59;;;;;;;;;;;;;;;-0.24;66.00;93010.38;5021512;28;20468;-85
2022/03/08 11:38:25;;;;;;;19.25;10.27;;;;;;;-0.15;71.37;92991.13;5015945;28;19923;-85
2022/03/08 11:40:53;;;;;;;24.65;11.27;;;;;;;0.12;70.72;93009.75;5031877;28;20033;-85
2022/03/08 11:43:20;;;;;;;20.25;11.43;;;;;;;0.30;69.37;93005.66;5014183;28;20125;-84
2022/03/08 11:45:48;;;;;;;20.25;10.15;;;;;;;0.56;69.49;92995.16;5014426;28;20040;-84
2022/03/08 11:48:19;;;;;;;21.42;10.63;;;;;;;0.52;68.88;92991.41;4994373;28;20092;-87
2022/03/08 11:50:48;;;;;;;18.25;10.70;;;;;;;0.71;68.40;92976.75;4994977;28;20048;-88
2022/03/08 11:53:24;;;;;;;22.17;11.18;;;;;;;0.80;68.04;92988.34;4998439;28;20507;-85
2022/03/08 11:55:55;;;;;;;20.58;11.32;;;;;;;0.96;67.75;92981.84;5025775;28;20077;-84
2022/03/08 11:58:23;;;;;;;16.20;8.73;;;;;;;0.43;64.45;92979.00;4983712;28;20038;-85
2022/03/08 12:00:58;;;;;;;16.30;7.80;;;;;;;-0.04;67.13;92974.22;5011391;28;20030;-84
2022/03/08 12:03:24;;;;;;;16.27;8.95;;;;;;;0.33;67.38;92982.06;5015906;28;20053;-84
2022/03/08 12:06:07;;;;;;;18.88;9.55;;;;;;;0.44;67.11;92981.38;5013158;28;20049;-84
2022/03/08 12:08:46;;;;;;;21.13;10.10;;;;;;;0.53;66.17;92961.28;5030586;28;20124;-84
2022/03/08 12:11:29;;;;;;;20.30;9.55;;;;;;;0.40;64.39;92977.63;5014159;28;20037;-84
2022/03/08 12:14:00;;;;;;;20.35;9.27;;;;;;;0.41;64.38;92958.63;5031770;28;20033;-84
2022/03/08 12:16:26;;;;;;;19.30;8.23;;;;;;;0.77;64.03;92970.75;5030512;28;20037;-85
2022/03/08 12:18:54;;;;;;;17.20;8.60;;;;;;;0.61;60.96;92972.09;5031739;28;20029;-85
2022/03/08 12:21:23;;;;;;;13.73;7.50;;;;;;;0.51;61.07;92971.78;5013399;28;20113;-86
2022/03/08 12:24:09;;;;;;;13.55;6.60;;;;;;;0.45;59.59;92959.78;4997370;28;20064;-84
2022/03/08 12:26:38;;;;;;;13.70;6.70;;;;;;;0.38;58.95;92961.59;5013820;28;20033;-84
2022/03/08 12:29:07;;;;;;;14.40;6.43;;;;;;;0.08;58.85;92949.38;5001163;28;20091;-84
2022/03/08 12:31:58;;;;;;;12.73;6.88;;;;;;;-0.06;59.29;92956.41;5017923;28;20521;-86
2022/03/08 12:34:33;;;;;;;8.88;4.55;;;;;;;-0.27;59.75;92931.81;5017248;28;20471;-84
2022/03/08 12:37:17;;;;;;;12.13;6.40;;;;;;;-0.27;58.97;92954.97;5017415;28;20040;-84
2022/03/08 12:40:08;;;;;;;12.40;6.63;;;;;;;-0.10;59.21;92952.69;5017607;28;20086;-85
2022/03/08 12:42:43;;;;;;;13.95;6.70;;;;;;;0.23;59.23;92938.75;5008694;28;20068;-86
2022/03/08 12:45:15;;;;;;;13.35;5.63;;;;;;;0.20;59.06;92932.25;5015334;28;20033;-86
2022/03/08 12:47:45;;;;;;;13.63;6.82;;;;;;;0.30;58.47;92939.50;5050302;28;20037;-84
2022/03/08 12:50:15;;;;;;;15.10;7.00;;;;;;;0.18;58.25;92931.69;5035238;28;20033;-84
2022/03/08 12:52:48;;;;;;;9.27;5.50;;;;;;;0.34;58.07;92939.88;5025800;28;20376;-85
2022/03/08 12:55:28;;;;;;;11.45;5.75;;;;;;;0.37;57.98;92923.97;5034927;28;20081;-84
2022/03/08 12:57:57;;;;;;;13.63;7.18;;;;;;;0.45;57.74;92912.59;5035620;28;20112;-84
2022/03/08 13:00:30;;;;;;;14.45;7.28;;;;;;;0.88;59.03;92922.88;5034653;28;20021;-84
2022/03/08 13:02:56;;;;;;;14.57;6.90;;;;;;;1.00;55.96;92910.03;5017054;28;20054;-88
2022/03/08 13:05:31;;;;;;;13.20;6.85;;;;;;;0.86;57.17;92929.22;5000757;28;20061;-85
2022/03/08 13:07:58;;;;;;;15.07;7.75;;;;;;;0.77;57.60;92926.16;4996606;28;20096;-84
2022/03/08 13:10:25;;;;;;;12.88;5.90;;;;;;;0.59;57.05;92926.94;5015270;28;20033;-84
2022/03/08 13:12:57;;;;;;;13.15;5.97;;;;;;;0.32;59.13;92905.81;5017210;28;20029;-84
2022/03/08 13:15:25;;;;;;;14.52;7.65;;;;;;;0.52;58.70;92916.69;5034052;28;20029;-85
2022/03/08 13:17:59;;;;;;;14.73;7.18;;;;;;;0.58;57.62;92900.38;4992017;28;20076;-84
2022/03/08 13:20:36;;;;;;;15.48;7.70;;;;;;;0.65;59.58;92910.59;5030719;28;20045;-85
2022/03/08 13:23:05;;;;;;;17.70;8.15;;;;;;;0.75;59.05;92884.34;5034604;28;20033;-84
2022/03/08 13:25:31;;;;;;;18.83;8.45;;;;;;;1.12;57.23;92904.91;5000572;28;20125;-84
2022/03/08 13:28:09;;;;;;;13.02;7.18;;;;;;;0.85;57.66;92912.19;5016421;28;20116;-84
2022/03/08 13:30:42;;;;;;;12.18;6.70;;;;;;;0.79;58.16;92908.69;4997980;28;20076;-86
2022/03/08 13:33:37;;;;;;;13.75;7.50;;;;;;;0.94;57.31;92906.50;5014219;28;20041;-84
2022/03/08 13:36:09;;;;;;;15.93;7.68;;;;;;;0.87;58.57;92895.50;4978984;28;20460;-84
2022/03/08 13:38:38;;;;;;;16.35;8.73;;;;;;;0.95;57.65;92879.75;5015076;28;20076;-84
2022/03/08 13:41:15;;;;;;;17.08;9.02;;;;;;;1.10;58.56;92884.50;5008975;28;20041;-84
2022/03/08 13:43:44;;;;;;;13.88;7.43;;;;;;;1.10;57.32;92876.75;5016419;28;20124;-85
2022/03/08 13:46:16;;;;;;;20.00;10.00;;;;;;;1.54;58.36;92863.69;5015089;28;20035;-84
2022/03/08 13:48:47;;;;;;;24.02;10.18;;;;;;;2.29;57.42;92875.97;5017868;28;20483;-88
2022/03/08 13:51:13;;;;;;;18.08;10.48;;;;;;;2.87;56.37;92882.09;5027266;28;20041;-84
2022/03/08 13:53:39;;;;;;;19.70;10.70;;;;;;;3.11;55.51;92886.19;5031236;28;20482;-86
2022/03/08 13:56:06;;;;;;;19.92;10.73;;;;;;;2.64;55.54;92891.47;5032667;28;20125;-85
2022/03/08 13:58:41;;;;;;;20.08;10.55;;;;;;;2.70;54.99;92867.28;5015888;28;20675;-84
2022/03/08 14:01:08;;;;;;;18.15;10.15;;;;;;;2.94;54.75;92890.50;5032190;28;20029;-84
2022/03/08 14:03:42;;;;;;;14.82;8.32;;;;;;;2.84;53.79;92885.16;5009551;28;20057;-85